sensor_id;sensor_type;location;lat;lon;timestamp;pressure;altitude;pressure_sealevel;temperature;humidity
9695;BME280;4690;52.422;13.486;2022-12-20T00:06:27;101604.78;;;4.60;94.78
9695;BME280;4690;52.422;13.486;2022-12-20T00:09:01;101606.53;;;4.26;95.39
9695;BME280;4690;52.422;13.486;2022-12-20T00:11:28;101603.13;;;4.24;96.70
9695;BME280;4690;52.422;13.486;2022-12-20T00:13:55;101603.69;;;4.44;96.22
9695;BME280;4690;52.422;13.486;2022-12-20T00:16:24;101584.88;;;4.43;95.62
9695;BME280;4690;52.422;13.486;2022-12-20T00:18:58;101586.22;;;4.39;96.21
9695;BME280;4690;52.422;13.486;2022-12-20T00:21:25;101586.06;;;4.40;95.97
9695;BME280;4690;52.422;13.486;2022-12-20T00:23:53;101583.72;;;4.45;96.08
9695;BME280;4690;52.422;13.486;2022-12-20T00:26:24;101588.13;;;4.46;95.11
9695;BME280;4690;52.422;13.486;2022-12-20T00:28:50;101590.81;;;4.46;95.23
9695;BME280;4690;52.422;13.486;2022-12-20T00:31:18;101602.69;;;4.37;95.01
9695;BME280;4690;52.422;13.486;2022-12-20T00:33:48;101595.78;;;4.51;92.65
9695;BME280;4690;52.422;13.486;2022-12-20T00:36:15;101581.88;;;4.54;93.23
9695;BME280;4690;52.422;13.486;2022-12-20T00:38:48;101571.88;;;4.71;91.42
9695;BME280;4690;52.422;13.486;2022-12-20T00:41:19;101566.13;;;4.82;90.60
9695;BME280;4690;52.422;13.486;2022-12-20T00:43:46;101568.16;;;5.05;90.38
9695;BME280;4690;52.422;13.486;2022-12-20T00:46:14;101571.03;;;4.95;89.09
9695;BME280;4690;52.422;13.486;2022-12-20T00:48:40;101571.72;;;4.97;90.20
9695;BME280;4690;52.422;13.486;2022-12-20T00:51:11;101575.13;;;4.91;89.04
9695;BME280;4690;52.422;13.486;2022-12-20T00:53:38;101568.50;;;4.93;89.98
9695;BME280;4690;52.422;13.486;2022-12-20T00:56:05;101574.94;;;4.76;89.55
9695;BME280;4690;52.422;13.486;2022-12-20T00:58:34;101588.34;;;4.86;89.23
9695;BME280;4690;52.422;13.486;2022-12-20T01:01:00;101584.44;;;4.88;88.90
9695;BME280;4690;52.422;13.486;2022-12-20T01:03:27;101574.28;;;4.90;88.91
9695;BME280;4690;52.422;13.486;2022-12-20T01:06:00;101575.13;;;4.99;87.92
9695;BME280;4690;52.422;13.486;2022-12-20T01:08:29;101571.03;;;5.11;86.72
9695;BME280;4690;52.422;13.486;2022-12-20T01:13:47;101577.50;;;5.10;87.68
9695;BME280;4690;52.422;13.486;2022-12-20T01:16:19;101580.03;;;5.12;87.98
9695;BME280;4690;52.422;13.486;2022-12-20T01:18:46;101576.13;;;5.06;87.67
9695;BME280;4690;52.422;13.486;2022-12-20T01:21:15;101568.84;;;5.07;86.75
9695;BME280;4690;52.422;13.486;2022-12-20T01:23:42;101578.66;;;4.91;87.34
9695;BME280;4690;52.422;13.486;2022-12-20T01:26:12;101579.53;;;5.16;86.57
9695;BME280;4690;52.422;13.486;2022-12-20T01:28:41;101588.16;;;5.12;87.15
9695;BME280;4690;52.422;13.486;2022-12-20T01:31:14;101590.19;;;5.26;87.23
9695;BME280;4690;52.422;13.486;2022-12-20T01:33:41;101590.53;;;5.23;86.43
9695;BME280;4690;52.422;13.486;2022-12-20T01:36:14;101576.63;;;5.26;86.24
9695;BME280;4690;52.422;13.486;2022-12-20T01:38:40;101574.22;;;5.39;86.47
9695;BME280;4690;52.422;13.486;2022-12-20T01:41:06;101567.47;;;5.11;86.70
9695;BME280;4690;52.422;13.486;2022-12-20T01:43:58;101566.44;;;5.20;86.91
9695;BME280;4690;52.422;13.486;2022-12-20T01:46:29;101570.69;;;5.23;86.75
9695;BME280;4690;52.422;13.486;2022-12-20T01:51:52;101561.00;;;5.28;85.88
9695;BME280;4690;52.422;13.486;2022-12-20T01:54:45;101557.59;;;5.34;86.68
9695;BME280;4690;52.422;13.486;2022-12-20T01:57:20;101548.09;;;5.30;85.58
9695;BME280;4690;52.422;13.486;2022-12-20T01:59:49;101559.66;;;5.16;86.06
9695;BME280;4690;52.422;13.486;2022-12-20T02:02:16;101549.97;;;5.22;86.85
9695;BME280;4690;52.422;13.486;2022-12-20T02:04:42;101555.25;;;5.07;87.21
9695;BME280;4690;52.422;13.486;2022-12-20T02:07:12;101547.59;;;5.19;86.00
9695;BME280;4690;52.422;13.486;2022-12-20T02:09:40;101544.69;;;5.36;85.87
9695;BME280;4690;52.422;13.486;2022-12-20T02:12:21;101545.53;;;5.29;86.64
9695;BME280;4690;52.422;13.486;2022-12-20T02:15:16;101550.13;;;5.20;86.87
9695;BME280;4690;52.422;13.486;2022-12-20T02:21:21;101540.44;;;5.17;86.43
9695;BME280;4690;52.422;13.486;2022-12-20T02:24:36;101556.94;;;5.24;86.29
9695;BME280;4690;52.422;13.486;2022-12-20T02:32:57;101555.88;;;5.42;85.33
9695;BME280;4690;52.422;13.486;2022-12-20T02:35:29;101541.47;;;5.33;85.72
9695;BME280;4690;52.422;13.486;2022-12-20T02:38:00;101535.34;;;5.31;85.71
9695;BME280;4690;52.422;13.486;2022-12-20T02:40:38;101530.56;;;5.41;85.68
9695;BME280;4690;52.422;13.486;2022-12-20T02:43:08;101533.22;;;5.57;84.83
9695;BME280;4690;52.422;13.486;2022-12-20T02:45:56;101531.75;;;5.47;85.29
9695;BME280;4690;52.422;13.486;2022-12-20T02:48:26;101524.47;;;5.31;85.77
9695;BME280;4690;52.422;13.486;2022-12-20T02:50:56;101519.84;;;5.48;84.95
9695;BME280;4690;52.422;13.486;2022-12-20T02:53:23;101530.38;;;5.51;85.16
9695;BME280;4690;52.422;13.486;2022-12-20T02:56:26;101513.94;;;5.36;84.84
9695;BME280;4690;52.422;13.486;2022-12-20T03:01:50;101510.16;;;5.53;84.87
9695;BME280;4690;52.422;13.486;2022-12-20T03:04:20;101505.41;;;5.47;85.07
9695;BME280;4690;52.422;13.486;2022-12-20T03:07:07;101513.72;;;5.54;84.65
9695;BME280;4690;52.422;13.486;2022-12-20T03:09:37;101507.53;;;5.68;84.64
9695;BME280;4690;52.422;13.486;2022-12-20T03:12:05;101506.31;;;5.79;83.23
9695;BME280;4690;52.422;13.486;2022-12-20T03:14:32;101499.66;;;5.81;82.91
9695;BME280;4690;52.422;13.486;2022-12-20T03:16:57;101499.44;;;5.91;82.89
9695;BME280;4690;52.422;13.486;2022-12-20T03:19:23;101503.34;;;5.97;83.45
9695;BME280;4690;52.422;13.486;2022-12-20T03:21:49;101498.59;;;5.99;82.46
9695;BME280;4690;52.422;13.486;2022-12-20T03:24:16;101489.94;;;5.95;83.14
9695;BME280;4690;52.422;13.486;2022-12-20T03:26:42;101488.25;;;5.94;82.80
9695;BME280;4690;52.422;13.486;2022-12-20T03:29:09;101501.16;;;5.92;82.75
9695;BME280;4690;52.422;13.486;2022-12-20T03:31:35;101484.16;;;5.90;82.47
9695;BME280;4690;52.422;13.486;2022-12-20T03:34:01;101487.09;;;5.80;83.03
9695;BME280;4690;52.422;13.486;2022-12-20T03:36:28;101487.28;;;5.79;83.38
9695;BME280;4690;52.422;13.486;2022-12-20T03:38:54;101487.91;;;5.97;83.53
9695;BME280;4690;52.422;13.486;2022-12-20T03:41:21;101485.66;;;6.01;82.99
9695;BME280;4690;52.422;13.486;2022-12-20T03:43:48;101483.13;;;5.91;82.65
9695;BME280;4690;52.422;13.486;2022-12-20T03:46:15;101495.47;;;5.71;83.92
9695;BME280;4690;52.422;13.486;2022-12-20T03:48:42;101499.13;;;5.55;84.55
9695;BME280;4690;52.422;13.486;2022-12-20T03:51:08;101513.00;;;5.60;83.91
9695;BME280;4690;52.422;13.486;2022-12-20T03:53:34;101502.66;;;5.64;84.02
9695;BME280;4690;52.422;13.486;2022-12-20T03:56:00;101504.94;;;5.83;83.76
9695;BME280;4690;52.422;13.486;2022-12-20T03:58:26;101502.16;;;5.99;83.29
9695;BME280;4690;52.422;13.486;2022-12-20T04:00:52;101505.69;;;6.08;82.95
9695;BME280;4690;52.422;13.486;2022-12-20T04:03:17;101501.50;;;5.89;82.58
9695;BME280;4690;52.422;13.486;2022-12-20T04:05:43;101500.47;;;5.90;83.36
9695;BME280;4690;52.422;13.486;2022-12-20T04:08:09;101497.00;;;5.65;84.31
9695;BME280;4690;52.422;13.486;2022-12-20T04:10:35;101482.91;;;5.70;84.26
9695;BME280;4690;52.422;13.486;2022-12-20T04:13:20;101486.19;;;5.49;84.87
9695;BME280;4690;52.422;13.486;2022-12-20T04:15:46;101494.66;;;5.62;84.89
9695;BME280;4690;52.422;13.486;2022-12-20T04:18:12;101489.41;;;5.60;85.40
9695;BME280;4690;52.422;13.486;2022-12-20T04:20:37;101495.66;;;5.69;84.58
9695;BME280;4690;52.422;13.486;2022-12-20T04:23:03;101498.00;;;5.80;83.68
9695;BME280;4690;52.422;13.486;2022-12-20T04:25:29;101495.41;;;5.87;83.28
9695;BME280;4690;52.422;13.486;2022-12-20T04:27:54;101497.59;;;5.92;83.56
9695;BME280;4690;52.422;13.486;2022-12-20T04:30:20;101486.34;;;5.64;84.03
9695;BME280;4690;52.422;13.486;2022-12-20T04:32:46;101475.25;;;5.65;83.85
9695;BME280;4690;52.422;13.486;2022-12-20T04:35:12;101478.78;;;5.74;83.86
9695;BME280;4690;52.422;13.486;2022-12-20T04:37:37;101477.44;;;5.78;83.34
9695;BME280;4690;52.422;13.486;2022-12-20T04:40:04;101461.94;;;5.78;83.08
9695;BME280;4690;52.422;13.486;2022-12-20T04:42:30;101463.91;;;5.61;83.92
9695;BME280;4690;52.422;13.486;2022-12-20T04:44:56;101473.03;;;5.69;84.20
9695;BME280;4690;52.422;13.486;2022-12-20T04:47:22;101486.22;;;5.80;83.82
9695;BME280;4690;52.422;13.486;2022-12-20T04:49:48;101495.56;;;5.94;83.29
9695;BME280;4690;52.422;13.486;2022-12-20T04:52:14;101482.28;;;5.99;82.77
9695;BME280;4690;52.422;13.486;2022-12-20T04:54:58;101469.75;;;5.81;83.18
9695;BME280;4690;52.422;13.486;2022-12-20T04:57:24;101463.47;;;5.81;82.93
9695;BME280;4690;52.422;13.486;2022-12-20T04:59:50;101472.00;;;5.78;83.58
9695;BME280;4690;52.422;13.486;2022-12-20T05:02:16;101477.50;;;5.93;83.04
9695;BME280;4690;52.422;13.486;2022-12-20T05:04:42;101465.25;;;5.97;82.91
9695;BME280;4690;52.422;13.486;2022-12-20T05:07:07;101482.47;;;5.89;82.87
9695;BME280;4690;52.422;13.486;2022-12-20T05:09:33;101478.91;;;5.89;83.26
9695;BME280;4690;52.422;13.486;2022-12-20T05:11:59;101461.56;;;5.90;82.63
9695;BME280;4690;52.422;13.486;2022-12-20T05:14:24;101456.94;;;5.90;83.13
9695;BME280;4690;52.422;13.486;2022-12-20T05:16:50;101451.06;;;5.78;83.34
9695;BME280;4690;52.422;13.486;2022-12-20T05:19:16;101453.00;;;5.70;83.81
9695;BME280;4690;52.422;13.486;2022-12-20T05:21:41;101476.91;;;5.74;83.37
9695;BME280;4690;52.422;13.486;2022-12-20T05:24:26;101470.28;;;5.77;83.59
9695;BME280;4690;52.422;13.486;2022-12-20T05:27:10;101472.03;;;5.70;83.52
9695;BME280;4690;52.422;13.486;2022-12-20T05:29:36;101473.56;;;5.64;83.73
9695;BME280;4690;52.422;13.486;2022-12-20T05:32:01;101468.31;;;5.62;84.10
9695;BME280;4690;52.422;13.486;2022-12-20T05:34:27;101461.53;;;5.58;84.55
9695;BME280;4690;52.422;13.486;2022-12-20T05:36:53;101463.53;;;5.65;84.66
9695;BME280;4690;52.422;13.486;2022-12-20T05:39:18;101456.25;;;5.57;84.35
9695;BME280;4690;52.422;13.486;2022-12-20T05:41:44;101456.09;;;5.58;84.99
9695;BME280;4690;52.422;13.486;2022-12-20T05:44:10;101466.13;;;5.58;84.91
9695;BME280;4690;52.422;13.486;2022-12-20T05:46:36;101456.47;;;5.55;85.12
9695;BME280;4690;52.422;13.486;2022-12-20T05:49:01;101454.47;;;5.80;85.11
9695;BME280;4690;52.422;13.486;2022-12-20T05:51:27;101453.78;;;5.78;83.97
9695;BME280;4690;52.422;13.486;2022-12-20T05:53:53;101454.59;;;5.87;84.70
9695;BME280;4690;52.422;13.486;2022-12-20T05:56:19;101445.41;;;5.88;84.30
9695;BME280;4690;52.422;13.486;2022-12-20T05:58:45;101448.72;;;6.06;84.06
9695;BME280;4690;52.422;13.486;2022-12-20T06:01:11;101453.66;;;6.11;83.95
9695;BME280;4690;52.422;13.486;2022-12-20T06:03:38;101444.75;;;6.17;84.03
9695;BME280;4690;52.422;13.486;2022-12-20T06:06:05;101437.47;;;6.10;84.80
9695;BME280;4690;52.422;13.486;2022-12-20T06:08:31;101441.47;;;5.99;85.75
9695;BME280;4690;52.422;13.486;2022-12-20T06:10:56;101448.09;;;5.96;86.43
9695;BME280;4690;52.422;13.486;2022-12-20T06:13:22;101445.75;;;5.93;86.30
9695;BME280;4690;52.422;13.486;2022-12-20T06:15:48;101454.22;;;5.90;87.35
9695;BME280;4690;52.422;13.486;2022-12-20T06:18:14;101443.94;;;5.77;86.89
9695;BME280;4690;52.422;13.486;2022-12-20T06:20:40;101446.66;;;5.77;88.03
9695;BME280;4690;52.422;13.486;2022-12-20T06:23:05;101454.59;;;5.95;87.07
9695;BME280;4690;52.422;13.486;2022-12-20T06:25:32;101455.00;;;6.07;86.93
9695;BME280;4690;52.422;13.486;2022-12-20T06:27:57;101465.78;;;6.00;86.98
9695;BME280;4690;52.422;13.486;2022-12-20T06:30:24;101466.44;;;6.02;86.74
9695;BME280;4690;52.422;13.486;2022-12-20T06:32:49;101467.81;;;5.98;86.35
9695;BME280;4690;52.422;13.486;2022-12-20T06:35:15;101475.91;;;6.15;86.30
9695;BME280;4690;52.422;13.486;2022-12-20T06:37:42;101470.41;;;6.23;86.42
9695;BME280;4690;52.422;13.486;2022-12-20T06:40:10;101471.59;;;6.20;86.68
9695;BME280;4690;52.422;13.486;2022-12-20T06:42:37;101468.88;;;6.43;85.80
9695;BME280;4690;52.422;13.486;2022-12-20T06:45:04;101479.28;;;6.40;86.13
9695;BME280;4690;52.422;13.486;2022-12-20T06:47:30;101476.31;;;6.49;85.96
9695;BME280;4690;52.422;13.486;2022-12-20T06:49:56;101481.94;;;6.25;86.64
9695;BME280;4690;52.422;13.486;2022-12-20T06:52:22;101478.16;;;6.34;87.17
9695;BME280;4690;52.422;13.486;2022-12-20T06:54:49;101474.69;;;6.40;86.56
9695;BME280;4690;52.422;13.486;2022-12-20T06:57:14;101488.63;;;6.45;87.24
9695;BME280;4690;52.422;13.486;2022-12-20T06:59:40;101493.56;;;6.42;87.96
9695;BME280;4690;52.422;13.486;2022-12-20T07:02:09;101491.97;;;6.24;88.61
9695;BME280;4690;52.422;13.486;2022-12-20T07:04:35;101481.88;;;6.33;88.92
9695;BME280;4690;52.422;13.486;2022-12-20T07:07:03;101489.81;;;6.43;88.87
9695;BME280;4690;52.422;13.486;2022-12-20T07:09:29;101476.16;;;6.28;90.27
9695;BME280;4690;52.422;13.486;2022-12-20T07:11:56;101487.88;;;6.28;90.38
9695;BME280;4690;52.422;13.486;2022-12-20T07:14:22;101479.94;;;6.42;90.13
9695;BME280;4690;52.422;13.486;2022-12-20T07:16:47;101471.50;;;6.37;90.21
9695;BME280;4690;52.422;13.486;2022-12-20T07:19:15;101471.47;;;6.14;91.24
9695;BME280;4690;52.422;13.486;2022-12-20T07:21:42;101469.13;;;6.34;91.55
9695;BME280;4690;52.422;13.486;2022-12-20T07:24:08;101478.78;;;6.36;91.18
9695;BME280;4690;52.422;13.486;2022-12-20T07:26:34;101471.56;;;6.28;91.12
9695;BME280;4690;52.422;13.486;2022-12-20T07:29:00;101482.44;;;6.28;92.18
9695;BME280;4690;52.422;13.486;2022-12-20T07:31:26;101480.09;;;6.25;92.88
9695;BME280;4690;52.422;13.486;2022-12-20T07:33:52;101482.66;;;6.19;92.90
9695;BME280;4690;52.422;13.486;2022-12-20T07:36:18;101489.56;;;6.29;92.65
9695;BME280;4690;52.422;13.486;2022-12-20T07:38:44;101488.19;;;6.34;92.51
9695;BME280;4690;52.422;13.486;2022-12-20T07:41:15;101491.50;;;6.44;93.07
9695;BME280;4690;52.422;13.486;2022-12-20T07:43:42;101491.41;;;6.37;92.97
9695;BME280;4690;52.422;13.486;2022-12-20T07:46:12;101493.69;;;6.48;93.42
9695;BME280;4690;52.422;13.486;2022-12-20T07:48:37;101494.16;;;6.52;93.51
9695;BME280;4690;52.422;13.486;2022-12-20T07:51:16;101490.00;;;6.41;94.57
9695;BME280;4690;52.422;13.486;2022-12-20T07:53:50;101496.09;;;6.43;95.12
9695;BME280;4690;52.422;13.486;2022-12-20T07:56:20;101507.53;;;6.39;95.88
9695;BME280;4690;52.422;13.486;2022-12-20T07:58:49;101500.28;;;6.54;96.06
9695;BME280;4690;52.422;13.486;2022-12-20T08:01:19;101492.63;;;6.72;95.70
9695;BME280;4690;52.422;13.486;2022-12-20T08:03:51;101496.69;;;6.77;95.28
9695;BME280;4690;52.422;13.486;2022-12-20T08:06:18;101498.72;;;6.60;95.56
9695;BME280;4690;52.422;13.486;2022-12-20T08:08:51;101495.88;;;6.76;96.24
9695;BME280;4690;52.422;13.486;2022-12-20T08:11:21;101487.44;;;6.63;96.13
9695;BME280;4690;52.422;13.486;2022-12-20T08:13:49;101497.38;;;6.56;97.00
9695;BME280;4690;52.422;13.486;2022-12-20T08:16:16;101504.75;;;6.47;98.32
9695;BME280;4690;52.422;13.486;2022-12-20T08:18:42;101507.88;;;6.59;97.85
9695;BME280;4690;52.422;13.486;2022-12-20T08:21:07;101506.94;;;6.51;98.06
9695;BME280;4690;52.422;13.486;2022-12-20T08:23:33;101511.13;;;6.62;97.59
9695;BME280;4690;52.422;13.486;2022-12-20T08:26:02;101499.66;;;6.67;97.72
9695;BME280;4690;52.422;13.486;2022-12-20T08:28:28;101493.22;;;6.68;98.25
9695;BME280;4690;52.422;13.486;2022-12-20T08:31:01;101492.47;;;6.74;97.68
9695;BME280;4690;52.422;13.486;2022-12-20T08:33:27;101488.63;;;6.83;97.71
9695;BME280;4690;52.422;13.486;2022-12-20T08:35:57;101493.34;;;6.89;97.32
9695;BME280;4690;52.422;13.486;2022-12-20T08:38:28;101488.50;;;7.00;96.72
9695;BME280;4690;52.422;13.486;2022-12-20T08:41:10;101478.91;;;7.04;96.98
9695;BME280;4690;52.422;13.486;2022-12-20T08:43:37;101473.06;;;6.92;96.69
9695;BME280;4690;52.422;13.486;2022-12-20T08:46:03;101476.28;;;6.72;98.30
9695;BME280;4690;52.422;13.486;2022-12-20T08:48:29;101466.84;;;6.83;98.29
9695;BME280;4690;52.422;13.486;2022-12-20T08:50:57;101480.84;;;6.80;98.22
9695;BME280;4690;52.422;13.486;2022-12-20T08:53:23;101482.50;;;6.81;98.07
9695;BME280;4690;52.422;13.486;2022-12-20T08:55:50;101491.56;;;6.82;98.25
9695;BME280;4690;52.422;13.486;2022-12-20T08:58:16;101500.81;;;6.95;98.33
9695;BME280;4690;52.422;13.486;2022-12-20T09:00:42;101493.47;;;6.96;98.01
9695;BME280;4690;52.422;13.486;2022-12-20T09:03:07;101494.66;;;6.79;98.20
9695;BME280;4690;52.422;13.486;2022-12-20T09:05:41;101487.63;;;6.84;99.33
9695;BME280;4690;52.422;13.486;2022-12-20T09:08:07;101482.94;;;6.93;98.76
9695;BME280;4690;52.422;13.486;2022-12-20T09:10:33;101475.69;;;7.00;98.81
9695;BME280;4690;52.422;13.486;2022-12-20T09:12:58;101483.03;;;7.00;98.30
9695;BME280;4690;52.422;13.486;2022-12-20T09:15:24;101483.06;;;7.14;98.30
9695;BME280;4690;52.422;13.486;2022-12-20T09:17:52;101467.81;;;7.05;98.23
9695;BME280;4690;52.422;13.486;2022-12-20T09:20:18;101459.56;;;7.13;98.19
9695;BME280;4690;52.422;13.486;2022-12-20T09:22:43;101467.75;;;7.13;98.10
9695;BME280;4690;52.422;13.486;2022-12-20T09:25:09;101461.00;;;7.24;97.82
9695;BME280;4690;52.422;13.486;2022-12-20T09:27:35;101472.22;;;7.06;98.05
9695;BME280;4690;52.422;13.486;2022-12-20T09:30:01;101467.28;;;7.25;98.25
9695;BME280;4690;52.422;13.486;2022-12-20T09:32:26;101459.84;;;7.33;98.01
9695;BME280;4690;52.422;13.486;2022-12-20T09:34:52;101475.06;;;7.43;97.96
9695;BME280;4690;52.422;13.486;2022-12-20T09:37:18;101471.25;;;7.52;97.17
9695;BME280;4690;52.422;13.486;2022-12-20T09:39:43;101464.47;;;7.48;96.72
9695;BME280;4690;52.422;13.486;2022-12-20T09:42:09;101466.81;;;7.51;96.83
9695;BME280;4690;52.422;13.486;2022-12-20T09:44:39;101462.09;;;7.45;97.24
9695;BME280;4690;52.422;13.486;2022-12-20T09:47:14;101467.09;;;7.56;96.95
9695;BME280;4690;52.422;13.486;2022-12-20T09:49:50;101453.72;;;7.61;96.38
9695;BME280;4690;52.422;13.486;2022-12-20T09:52:54;101457.47;;;7.75;96.55
9695;BME280;4690;52.422;13.486;2022-12-20T09:55:37;101442.50;;;7.71;95.55
9695;BME280;4690;52.422;13.486;2022-12-20T10:01:22;101456.75;;;7.66;96.59
9695;BME280;4690;52.422;13.486;2022-12-20T10:03:50;101464.16;;;7.72;96.32
9695;BME280;4690;52.422;13.486;2022-12-20T10:08:59;101452.19;;;7.73;95.63
9695;BME280;4690;52.422;13.486;2022-12-20T10:11:56;101450.88;;;7.84;95.10
9695;BME280;4690;52.422;13.486;2022-12-20T10:17:21;101456.59;;;7.89;94.36
9695;BME280;4690;52.422;13.486;2022-12-20T10:25:32;101439.34;;;8.03;94.78
9695;BME280;4690;52.422;13.486;2022-12-20T10:28:10;101450.31;;;8.10;94.15
9695;BME280;4690;52.422;13.486;2022-12-20T10:30:36;101438.38;;;8.11;93.44
9695;BME280;4690;52.422;13.486;2022-12-20T10:33:02;101435.88;;;8.16;93.58
9695;BME280;4690;52.422;13.486;2022-12-20T10:35:39;101431.19;;;8.46;92.76
9695;BME280;4690;52.422;13.486;2022-12-20T10:38:10;101431.34;;;8.66;92.04
9695;BME280;4690;52.422;13.486;2022-12-20T10:40:44;101417.22;;;8.56;91.53
9695;BME280;4690;52.422;13.486;2022-12-20T10:43:19;101418.75;;;8.44;92.06
9695;BME280;4690;52.422;13.486;2022-12-20T10:46:04;101397.47;;;8.61;92.59
9695;BME280;4690;52.422;13.486;2022-12-20T10:48:37;101402.69;;;8.84;90.55
9695;BME280;4690;52.422;13.486;2022-12-20T10:51:16;101391.84;;;8.97;90.18
9695;BME280;4690;52.422;13.486;2022-12-20T10:54:01;101385.81;;;9.02;89.45
9695;BME280;4690;52.422;13.486;2022-12-20T10:56:33;101397.41;;;9.10;90.25
9695;BME280;4690;52.422;13.486;2022-12-20T11:01:47;101380.44;;;8.87;90.71
9695;BME280;4690;52.422;13.486;2022-12-20T11:04:40;101376.81;;;9.14;90.18
9695;BME280;4690;52.422;13.486;2022-12-20T11:07:31;101365.34;;;8.97;89.73
9695;BME280;4690;52.422;13.486;2022-12-20T11:10:02;101368.25;;;8.89;90.86
9695;BME280;4690;52.422;13.486;2022-12-20T11:12:28;101362.28;;;9.07;90.76
9695;BME280;4690;52.422;13.486;2022-12-20T11:15:23;101355.19;;;9.26;89.99
9695;BME280;4690;52.422;13.486;2022-12-20T11:18:12;101349.47;;;9.14;88.39
9695;BME280;4690;52.422;13.486;2022-12-20T11:24:18;101345.78;;;8.94;89.23
9695;BME280;4690;52.422;13.486;2022-12-20T11:27:28;101356.88;;;8.86;90.17
9695;BME280;4690;52.422;13.486;2022-12-20T11:35:54;101328.81;;;8.98;90.77
9695;BME280;4690;52.422;13.486;2022-12-20T11:38:43;101319.28;;;9.29;88.55
9695;BME280;4690;52.422;13.486;2022-12-20T11:44:32;101318.00;;;9.32;88.12
9695;BME280;4690;52.422;13.486;2022-12-20T11:52:45;101303.63;;;9.16;85.12
9695;BME280;4690;52.422;13.486;2022-12-20T11:58:00;101306.44;;;9.30;84.48
9695;BME280;4690;52.422;13.486;2022-12-20T12:00:30;101305.78;;;9.28;84.21
9695;BME280;4690;52.422;13.486;2022-12-20T12:03:15;101313.09;;;9.20;84.01
9695;BME280;4690;52.422;13.486;2022-12-20T12:08:42;101314.28;;;9.46;82.99
9695;BME280;4690;52.422;13.486;2022-12-20T12:11:27;101307.38;;;9.63;83.13
9695;BME280;4690;52.422;13.486;2022-12-20T12:13:56;101305.25;;;9.59;82.06
9695;BME280;4690;52.422;13.486;2022-12-20T12:16:46;101305.38;;;9.31;83.23
9695;BME280;4690;52.422;13.486;2022-12-20T12:19:16;101298.31;;;9.02;84.17
9695;BME280;4690;52.422;13.486;2022-12-20T12:21:53;101302.16;;;9.14;84.05
9695;BME280;4690;52.422;13.486;2022-12-20T12:24:35;101296.50;;;9.15;84.08
9695;BME280;4690;52.422;13.486;2022-12-20T12:27:30;101294.03;;;8.92;84.68
9695;BME280;4690;52.422;13.486;2022-12-20T12:29:57;101289.56;;;9.19;84.03
9695;BME280;4690;52.422;13.486;2022-12-20T12:32:38;101287.03;;;9.18;83.96
9695;BME280;4690;52.422;13.486;2022-12-20T12:41:38;101273.97;;;9.07;84.28
9695;BME280;4690;52.422;13.486;2022-12-20T12:46:46;101265.19;;;9.31;82.65
9695;BME280;4690;52.422;13.486;2022-12-20T12:49:21;101268.34;;;9.28;82.52
9695;BME280;4690;52.422;13.486;2022-12-20T12:51:58;101258.09;;;9.43;82.22
9695;BME280;4690;52.422;13.486;2022-12-20T12:54:35;101253.41;;;9.24;82.55
9695;BME280;4690;52.422;13.486;2022-12-20T12:57:11;101257.81;;;9.18;82.78
9695;BME280;4690;52.422;13.486;2022-12-20T13:20:35;101235.78;;;8.85;81.55
9695;BME280;4690;52.422;13.486;2022-12-20T13:25:38;101242.28;;;8.78;81.77
9695;BME280;4690;52.422;13.486;2022-12-20T13:33:48;101249.66;;;8.84;81.05
9695;BME280;4690;52.422;13.486;2022-12-20T13:36:35;101242.53;;;8.89;80.89
9695;BME280;4690;52.422;13.486;2022-12-20T13:41:50;101241.44;;;8.84;79.99
9695;BME280;4690;52.422;13.486;2022-12-20T13:44:29;101246.50;;;8.87;80.12
9695;BME280;4690;52.422;13.486;2022-12-20T13:49:39;101258.81;;;9.04;78.61
9695;BME280;4690;52.422;13.486;2022-12-20T13:52:42;101254.50;;;8.88;78.43
9695;BME280;4690;52.422;13.486;2022-12-20T13:55:36;101243.16;;;8.85;78.46
9695;BME280;4690;52.422;13.486;2022-12-20T13:58:13;101247.09;;;8.75;78.09
9695;BME280;4690;52.422;13.486;2022-12-20T14:00:40;101240.09;;;8.66;78.55
9695;BME280;4690;52.422;13.486;2022-12-20T14:03:24;101245.56;;;8.66;78.97
9695;BME280;4690;52.422;13.486;2022-12-20T14:06:13;101245.94;;;8.57;78.98
9695;BME280;4690;52.422;13.486;2022-12-20T14:08:45;101237.78;;;8.63;78.59
9695;BME280;4690;52.422;13.486;2022-12-20T14:13:39;101235.78;;;8.44;78.27
9695;BME280;4690;52.422;13.486;2022-12-20T14:16:17;101237.13;;;8.33;78.71
9695;BME280;4690;52.422;13.486;2022-12-20T14:19:00;101229.31;;;8.51;78.82
9695;BME280;4690;52.422;13.486;2022-12-20T14:21:28;101231.41;;;8.49;77.64
9695;BME280;4690;52.422;13.486;2022-12-20T14:23:57;101218.69;;;8.35;78.35
9695;BME280;4690;52.422;13.486;2022-12-20T14:26:34;101215.91;;;8.28;78.80
9695;BME280;4690;52.422;13.486;2022-12-20T14:29:09;101217.84;;;8.35;78.31
9695;BME280;4690;52.422;13.486;2022-12-20T14:31:44;101221.16;;;8.30;78.40
9695;BME280;4690;52.422;13.486;2022-12-20T14:36:47;101222.56;;;8.19;78.46
9695;BME280;4690;52.422;13.486;2022-12-20T14:39:31;101218.59;;;8.22;78.67
9695;BME280;4690;52.422;13.486;2022-12-20T14:42:12;101215.81;;;8.15;78.53
9695;BME280;4690;52.422;13.486;2022-12-20T14:44:39;101208.44;;;8.09;78.61
9695;BME280;4690;52.422;13.486;2022-12-20T14:47:19;101201.44;;;8.00;78.38
9695;BME280;4690;52.422;13.486;2022-12-20T14:49:53;101203.81;;;8.09;78.44
9695;BME280;4690;52.422;13.486;2022-12-20T14:55:23;101207.06;;;7.92;78.11
9695;BME280;4690;52.422;13.486;2022-12-20T14:57:53;101205.44;;;7.54;79.33
9695;BME280;4690;52.422;13.486;2022-12-20T15:08:32;101193.13;;;7.58;79.00
9695;BME280;4690;52.422;13.486;2022-12-20T15:13:40;101195.41;;;7.55;79.08
9695;BME280;4690;52.422;13.486;2022-12-20T15:16:20;101191.44;;;7.57;78.79
9695;BME280;4690;52.422;13.486;2022-12-20T15:18:49;101189.66;;;7.71;78.29
9695;BME280;4690;52.422;13.486;2022-12-20T15:21:35;101176.38;;;7.61;78.59
9695;BME280;4690;52.422;13.486;2022-12-20T15:24:16;101188.94;;;7.62;78.58
9695;BME280;4690;52.422;13.486;2022-12-20T15:26:44;101186.94;;;7.71;77.91
9695;BME280;4690;52.422;13.486;2022-12-20T15:29:36;101182.97;;;7.74;77.54
9695;BME280;4690;52.422;13.486;2022-12-20T15:32:24;101169.78;;;7.77;76.95
9695;BME280;4690;52.422;13.486;2022-12-20T15:34:52;101183.72;;;7.61;77.38
9695;BME280;4690;52.422;13.486;2022-12-20T15:37:18;101175.88;;;7.79;77.36